Current Conditions

Updated: 18-Apr-2019 2:03 PM  
Summary / Temperature Wind Rain






Feels like: 82°F

1-hour difference
1.7°F 1.7°F warmer than last hour.

24-hour difference
9.6°F9.6°F warmer than yesterday at this time.

  Today Yesterday
High: 82.7°F
1:53 PM
77.0°F
3:29 PM
Low: 49.8°F
6:40 AM
47.1°F
5:54 AM
Wind from NNW NNW
2.4
Gust:  3.0 mph
0 Beaufort - Light Air

Today: 6.0 - 1:30 PM
Month: 20.0 mph - Apr 9
Rain Today: 0.00 in
Current Rate (/hr): 0.000 in
Max Rate (/hr):
Rain Yesterday: 0.00 in
Storm Rain: 0.00 in
This Month: 0.40 in
Season Total: 10.32 in
Last Rain Event: 1 day ago
Humidity / Barometer Sun / Moon
Humidity: 39 Decreased 2.0% in the last hour.
Dew Point: 55.0°F Increased 0.1°F in the last hour.
Barometer: 30.062 inHg  
Baro Trend: Falling slowly
Sunrise: 6:19 AM
Sunset: 7:32 PM
Moonrise: 5:53 PM
Moonset: 6:12 AM
Sky Conditions UV Index
Summary: Clear
Visibility: 10 miles
Clouds: None
KVIS - 1:56 PM PDT
Current: 7.0  High 
Thursday: 9.0  Very High 
Friday: 8.8  Very High 
Air Quality Fire Danger
 Good 
Ozone 57 ppb
PM 2.5 11 μg/m3
2:00 PM PDT
Current: 36  Low 

Local Alerts Local Forecast
Local NWS Alerts
Today

Mostly
Sunny
High 89
Tonight

Mostly
Clear
Low 58
Fri

Mostly
Sunny
High 91
Fri night

Partly
Cloudy
Low 58
Sat

Partly
Cloudy
High 84
Sat night

Partly
Cloudy
Low 49
Sun

Mostly
Sunny
High 78

Local Radar Local Satellite Neighborhood Cam Sky Cam
Local Radar Local Satellite Neighborhood Cam Sky Cam


Nearby Airport Stations

KVIS - Visalia, California, USA
Distance from station: W 14mi, 23km
Updated: Thu, 18-Apr-2019 1:56pm PDT
Clear
Clear
 Wind from N
Wind: N 8 mph , 13 km/h
Temperature: 82°F , 28°C
Heat Index: 81°F , 27°C
Dew Point: 55°F , 13°C
Humidity: 40%
Barometer: 30.09 inHg , 1019 hPa
Clouds: Clear
Visibility: 10 miles , 16 km
2019/04/18 20:56 KVIS 182056Z AUTO 36007KT 10SM CLR 28/13 A3009 RMK AO2 SLP196 T02780128 56023
KPTV - Porterville, California, USA
Distance from station: SSE 19mi, 31km
Updated: Thu, 18-Apr-2019 1:56pm PDT
Clear
Clear
 Wind from varies
Wind: varies 7 mph , 11 km/h
Temperature: 82°F , 28°C
Dew Point: 52°F , 11°C
Humidity: 35%
Barometer: 30.09 inHg , 1019 hPa
Clouds: Clear
Visibility: 9 miles , 14 km
2019/04/18 20:56 KPTV 182056Z AUTO VRB06KT 9SM CLR 28/11 A3009 RMK AO2 SLP199 T02830111 58021

Metar display script from Saratoga-Weather.org



Visitor Map